createdAt,value
2023-03-10T00:02:49.733Z,75.25
2023-03-10T00:05:40.231Z,45.63
2023-03-10T00:08:29.778Z,47.63
2023-03-10T00:11:19.629Z,64.57
2023-03-10T00:14:08.821Z,50.10
2023-03-10T00:16:57.989Z,49.83
2023-03-10T00:19:48.776Z,50.28
2023-03-10T00:22:38.080Z,47.08
2023-03-10T00:25:27.409Z,51.28
2023-03-10T00:28:16.750Z,50.08
2023-03-10T00:31:09.998Z,52.50
2023-03-10T00:34:00.721Z,46.53
2023-03-10T00:36:51.324Z,52.40
2023-03-10T00:39:40.596Z,85.40
2023-03-10T00:42:29.843Z,65.22
2023-03-10T00:45:19.394Z,56.55
2023-03-10T00:48:08.890Z,49.33
2023-03-10T00:50:58.543Z,44.67
2023-03-10T00:53:50.285Z,43.95
2023-03-10T00:56:40.100Z,56.13
2023-03-10T00:59:34.894Z,46.03
2023-03-10T01:02:30.191Z,40.15
2023-03-10T01:05:20.666Z,39.25
2023-03-10T01:08:09.944Z,44.17
2023-03-10T01:11:00.611Z,55.80
2023-03-10T01:13:51.002Z,44.55
2023-03-10T01:16:40.239Z,42.60
2023-03-10T01:19:29.436Z,39.13
2023-03-10T01:22:18.804Z,55.95
2023-03-10T01:25:09.227Z,33.20
2023-03-10T01:28:00.974Z,82.43
2023-03-10T01:30:50.673Z,38.00
2023-03-10T01:33:42.926Z,37.67
2023-03-10T01:36:32.210Z,41.87
2023-03-10T01:39:21.575Z,40.70
2023-03-10T01:42:10.726Z,47.67
2023-03-10T01:45:11.312Z,47.95
2023-03-10T01:48:00.861Z,39.55
2023-03-10T01:50:54.251Z,43.15
2023-03-10T01:53:43.806Z,53.72
2023-03-10T01:56:33.091Z,40.60
2023-03-10T01:59:23.227Z,39.67
2023-03-10T02:02:14.338Z,33.67
2023-03-10T02:05:04.523Z,37.90
2023-03-10T02:07:57.696Z,39.00
2023-03-10T02:10:47.932Z,47.60
2023-03-10T02:13:38.617Z,39.45
2023-03-10T02:16:27.910Z,42.92
2023-03-10T02:19:40.249Z,39.13
2023-03-10T02:22:29.665Z,43.25
2023-03-10T02:25:35.192Z,43.97
2023-03-10T02:28:25.944Z,42.55
2023-03-10T02:31:16.046Z,43.83
2023-03-10T02:34:06.789Z,46.03
2023-03-10T02:36:56.855Z,48.67
2023-03-10T02:39:46.078Z,42.20
2023-03-10T02:42:37.664Z,46.05
2023-03-10T02:45:35.690Z,42.85
2023-03-10T02:48:28.685Z,44.30
2023-03-10T02:51:22.563Z,40.17
2023-03-10T02:54:12.608Z,54.45
2023-03-10T02:57:02.117Z,40.10
2023-03-10T02:59:51.423Z,40.70
2023-03-10T03:02:42.415Z,43.33
2023-03-10T03:05:31.678Z,44.83
2023-03-10T03:08:21.874Z,42.10
2023-03-10T03:11:11.795Z,49.38
2023-03-10T03:14:01.477Z,45.78
2023-03-10T03:16:52.490Z,53.50
2023-03-10T03:19:43.209Z,48.00
2023-03-10T03:22:33.427Z,49.00
2023-03-10T03:25:24.126Z,62.10
2023-03-10T03:28:14.342Z,50.47
2023-03-10T03:31:05.934Z,55.13
2023-03-10T03:33:55.283Z,41.03
2023-03-10T03:36:46.151Z,48.17
2023-03-10T03:39:38.268Z,49.55
2023-03-10T03:42:29.965Z,49.97
2023-03-10T03:45:22.117Z,44.17
2023-03-10T03:48:15.001Z,56.22
2023-03-10T03:51:05.807Z,45.78
2023-03-10T03:54:02.763Z,53.88
2023-03-10T03:56:55.582Z,45.78
2023-03-10T03:59:44.856Z,39.75
2023-03-10T04:02:34.308Z,45.10
2023-03-10T04:05:24.032Z,46.03
2023-03-10T04:08:14.227Z,42.00
2023-03-10T04:11:05.108Z,41.72
2023-03-10T04:16:45.694Z,44.17
2023-03-10T04:19:35.495Z,46.33
2023-03-10T04:22:30.299Z,41.63
2023-03-10T04:25:20.078Z,47.30
2023-03-10T04:28:11.361Z,44.85
2023-03-10T04:31:00.730Z,43.80
2023-03-10T04:33:54.164Z,44.60
2023-03-10T04:36:44.602Z,48.67
2023-03-10T04:39:33.997Z,44.70
2023-03-10T04:42:23.680Z,45.13
2023-03-10T04:45:14.696Z,43.63
2023-03-10T04:48:05.678Z,98.35
2023-03-10T04:50:59.443Z,43.72
2023-03-10T04:53:51.431Z,45.30
2023-03-10T04:56:41.298Z,41.30
2023-03-10T04:59:30.730Z,39.83
2023-03-10T05:02:21.381Z,40.25
2023-03-10T05:05:12.838Z,37.50
2023-03-10T05:08:07.150Z,42.65
2023-03-10T05:10:56.833Z,36.67
2023-03-10T05:13:46.352Z,40.05
2023-03-10T05:16:35.804Z,37.80
2023-03-10T05:19:28.809Z,41.40
2023-03-10T05:22:20.257Z,37.08
2023-03-10T05:25:13.289Z,37.67
2023-03-10T05:28:04.001Z,39.20
2023-03-10T05:30:54.471Z,34.40
2023-03-10T05:33:44.351Z,37.63
2023-03-10T05:36:36.586Z,38.85
2023-03-10T05:42:20.289Z,41.33
2023-03-10T05:45:12.188Z,38.55
2023-03-10T05:48:01.791Z,36.28
2023-03-10T05:51:00.721Z,36.90
2023-03-10T05:53:52.260Z,37.97
2023-03-10T05:56:46.789Z,36.45
2023-03-10T05:59:36.218Z,37.15
2023-03-10T06:02:25.932Z,37.10
2023-03-10T06:05:15.381Z,38.75
2023-03-10T06:08:04.719Z,38.97
2023-03-10T06:10:55.537Z,39.60
2023-03-10T06:13:44.787Z,35.88
2023-03-10T06:16:34.156Z,35.65
2023-03-10T06:19:24.889Z,37.92
2023-03-10T06:22:14.285Z,34.53
2023-03-10T06:25:03.908Z,36.15
2023-03-10T06:27:54.545Z,35.80
2023-03-10T06:30:43.792Z,36.45
2023-03-10T06:33:33.847Z,36.55
2023-03-10T06:36:26.506Z,41.88
2023-03-10T06:39:15.774Z,36.22
2023-03-10T06:42:05.054Z,38.50
2023-03-10T06:44:57.506Z,40.33
2023-03-10T06:47:46.850Z,40.30
2023-03-10T06:50:41.904Z,40.53
2023-03-10T06:53:31.152Z,42.25
2023-03-10T06:56:23.489Z,38.40
2023-03-10T06:59:12.811Z,41.90
2023-03-10T07:02:03.903Z,40.72
2023-03-10T07:04:53.267Z,41.50
2023-03-10T07:07:42.532Z,43.22
2023-03-10T07:10:31.750Z,43.58
2023-03-10T07:13:22.064Z,45.85
2023-03-10T07:16:11.452Z,47.45
2023-03-10T07:19:02.032Z,45.78
2023-03-10T07:21:51.281Z,48.15
2023-03-10T07:24:40.573Z,49.60
2023-03-10T07:27:29.796Z,48.83
2023-03-10T07:30:19.611Z,49.92
2023-03-10T07:33:08.819Z,47.55
2023-03-10T07:35:59.496Z,49.20
2023-03-10T07:38:49.304Z,47.33
2023-03-10T07:41:38.501Z,46.00
2023-03-10T07:44:27.858Z,48.13
2023-03-10T07:47:17.406Z,42.30
2023-03-10T07:50:07.774Z,43.22
2023-03-10T07:52:59.288Z,42.35
2023-03-10T07:55:48.453Z,40.83
2023-03-10T07:58:38.085Z,40.72
2023-03-10T08:01:27.702Z,40.53
2023-03-10T08:04:17.405Z,40.92
2023-03-10T08:07:07.068Z,39.88
2023-03-10T08:09:57.662Z,38.17
2023-03-10T08:12:46.943Z,40.92
2023-03-10T08:15:36.709Z,40.72
2023-03-10T08:18:26.588Z,39.47
2023-03-10T08:21:15.755Z,40.58
2023-03-10T08:24:05.353Z,39.95
2023-03-10T08:26:56.532Z,37.97
2023-03-10T08:29:45.769Z,40.97
2023-03-10T08:32:35.062Z,39.50
2023-03-10T08:35:24.330Z,40.00
2023-03-10T08:38:13.525Z,39.83
2023-03-10T08:41:13.197Z,40.90
2023-03-10T08:44:04.272Z,38.75
2023-03-10T08:46:53.826Z,29.75
2023-03-10T08:49:45.744Z,20.30
2023-03-10T08:52:36.471Z,9.90
2023-03-10T08:55:25.820Z,5.25
2023-03-10T08:58:15.137Z,6.03
2023-03-10T09:01:06.357Z,5.35
2023-03-10T09:03:55.618Z,5.10
2023-03-10T09:06:44.890Z,6.55
2023-03-10T09:09:34.287Z,18.10
2023-03-10T09:12:23.518Z,17.85
2023-03-10T09:15:13.037Z,18.10
2023-03-10T09:18:03.861Z,11.63
2023-03-10T09:20:53.386Z,8.63
2023-03-10T09:23:45.866Z,6.07
2023-03-10T09:26:35.622Z,10.27
2023-03-10T09:29:41.784Z,9.35
2023-03-10T09:32:32.238Z,16.67
2023-03-10T09:35:23.215Z,11.55
2023-03-10T09:38:13.003Z,8.77
2023-03-10T09:41:20.248Z,14.35
2023-03-10T09:44:30.894Z,16.40
2023-03-10T09:47:38.386Z,12.93
2023-03-10T09:50:40.153Z,6.18
2023-03-10T09:54:09.195Z,5.55
2023-03-10T09:57:01.126Z,5.70
2023-03-10T09:59:55.422Z,5.38
2023-03-10T10:02:49.196Z,6.50
2023-03-10T10:05:42.891Z,13.57
2023-03-10T10:08:45.022Z,23.75
2023-03-10T10:11:38.454Z,39.90
2023-03-10T10:14:31.550Z,50.97
2023-03-10T10:17:33.816Z,52.90
2023-03-10T10:20:32.479Z,56.35
2023-03-10T10:23:30.926Z,52.97
2023-03-10T10:26:22.863Z,57.38
2023-03-10T10:29:20.130Z,54.42
2023-03-10T10:32:12.483Z,52.28
2023-03-10T10:35:17.196Z,54.85
2023-03-10T10:38:18.820Z,55.88
2023-03-10T10:41:19.738Z,54.90
2023-03-10T10:44:15.550Z,56.78
2023-03-10T10:47:05.025Z,53.53
2023-03-10T10:49:54.865Z,49.90
2023-03-10T10:52:46.416Z,45.08
2023-03-10T10:55:37.229Z,41.03
2023-03-10T10:58:31.799Z,36.30
2023-03-10T11:01:21.137Z,31.45
2023-03-10T11:04:15.881Z,30.92
2023-03-10T11:07:13.346Z,26.17
2023-03-10T11:10:03.086Z,24.02
2023-03-10T11:13:05.741Z,22.42
2023-03-10T11:16:06.602Z,20.30
2023-03-10T11:19:02.092Z,20.85
2023-03-10T11:21:57.393Z,17.30
2023-03-10T11:24:53.556Z,18.13
2023-03-10T11:27:50.480Z,15.30
2023-03-10T11:30:46.530Z,14.88
2023-03-10T11:33:47.425Z,14.13
2023-03-10T11:36:55.499Z,11.50
2023-03-10T11:39:56.080Z,10.85
2023-03-10T11:42:56.251Z,10.23
2023-03-10T11:45:52.841Z,9.13
2023-03-10T11:48:54.398Z,9.52
2023-03-10T11:51:47.468Z,8.27
2023-03-10T11:54:42.404Z,8.80
2023-03-10T11:57:38.145Z,5.47
2023-03-10T12:00:34.521Z,5.35
2023-03-10T12:03:40.603Z,6.60
2023-03-10T12:06:40.065Z,5.93
2023-03-10T12:09:42.333Z,4.75
2023-03-10T12:12:36.390Z,5.60
2023-03-10T12:15:30.486Z,4.10
2023-03-10T12:18:19.815Z,3.70
2023-03-10T12:21:24.051Z,5.13
2023-03-10T12:24:46.346Z,4.75
2023-03-10T12:28:13.489Z,6.40
2023-03-10T12:31:04.938Z,3.70
2023-03-10T12:34:09.226Z,6.30
2023-03-10T12:37:08.583Z,2.75
2023-03-10T12:39:59.317Z,8.75
2023-03-10T12:42:48.595Z,3.58
2023-03-10T12:45:45.672Z,3.83
2023-03-10T12:48:41.670Z,6.95
2023-03-10T12:51:32.658Z,3.50
2023-03-10T12:55:24.405Z,2.88
2023-03-10T12:58:22.613Z,3.38
2023-03-10T13:01:16.391Z,3.88
2023-03-10T13:04:08.994Z,3.58
2023-03-10T13:07:03.699Z,5.13
2023-03-10T13:09:54.104Z,8.05
2023-03-10T13:12:49.205Z,14.88
2023-03-10T13:15:39.811Z,14.30
2023-03-10T13:18:29.635Z,13.57
2023-03-10T13:21:29.556Z,13.52
2023-03-10T13:24:26.641Z,13.88
2023-03-10T13:27:19.702Z,17.48
2023-03-10T13:33:24.674Z,16.65
2023-03-10T13:36:30.043Z,14.90
2023-03-10T13:39:24.333Z,12.82
2023-03-10T13:42:37.096Z,12.30
2023-03-10T13:45:34.415Z,6.10
2023-03-10T13:48:27.356Z,2.70
2023-03-10T13:51:23.850Z,3.40
2023-03-10T13:54:21.480Z,6.32
2023-03-10T13:57:19.100Z,9.35
2023-03-10T14:00:13.394Z,16.13
2023-03-10T14:03:03.028Z,9.00
2023-03-10T14:05:54.077Z,11.70
2023-03-10T14:08:43.248Z,12.38
2023-03-10T14:11:36.821Z,14.68
2023-03-10T14:14:32.033Z,18.63
2023-03-10T14:17:35.361Z,13.82
2023-03-10T14:23:32.557Z,16.88
2023-03-10T14:26:21.697Z,17.48
2023-03-10T14:29:17.174Z,20.25
2023-03-10T14:32:07.810Z,16.45
2023-03-10T14:34:57.131Z,18.48
2023-03-10T14:37:46.361Z,14.68
2023-03-10T14:40:42.526Z,16.15
2023-03-10T14:43:33.361Z,11.35
2023-03-10T14:46:22.837Z,17.80
2023-03-10T14:49:17.579Z,13.25
2023-03-10T14:52:14.433Z,15.55
2023-03-10T14:55:03.764Z,14.63
2023-03-10T14:58:01.065Z,18.63
2023-03-10T15:00:51.082Z,14.32
2023-03-10T15:03:41.373Z,11.77
2023-03-10T15:06:30.605Z,16.33
2023-03-10T15:09:20.007Z,15.43
2023-03-10T15:12:11.315Z,19.25
2023-03-10T15:15:01.924Z,17.73
2023-03-10T15:17:52.091Z,16.48
2023-03-10T15:20:41.789Z,17.83
2023-03-10T15:23:32.484Z,16.00
2023-03-10T15:26:21.958Z,14.57
2023-03-10T15:29:15.062Z,16.55
2023-03-10T15:34:55.713Z,19.83
2023-03-10T15:37:45.865Z,16.73
2023-03-10T15:40:36.133Z,15.85
2023-03-10T15:43:25.630Z,14.02
2023-03-10T15:46:15.005Z,12.82
2023-03-10T15:49:06.642Z,12.27
2023-03-10T15:51:56.180Z,13.35
2023-03-10T15:54:45.511Z,14.50
2023-03-10T15:57:35.060Z,14.05
2023-03-10T16:00:26.806Z,15.45
2023-03-10T16:03:18.380Z,18.10
2023-03-10T16:06:10.745Z,17.33
2023-03-10T16:09:00.180Z,17.00
2023-03-10T16:11:49.735Z,15.60
2023-03-10T16:14:39.023Z,16.60
2023-03-10T16:17:31.559Z,17.00
2023-03-10T16:20:21.406Z,17.00
2023-03-10T16:23:12.137Z,18.30
2023-03-10T16:26:13.428Z,18.60
2023-03-10T16:29:02.601Z,17.45
2023-03-10T16:31:51.982Z,16.92
2023-03-10T16:34:41.145Z,20.02
2023-03-10T16:37:31.663Z,17.58
2023-03-10T16:40:22.323Z,19.30
2023-03-10T16:43:11.824Z,18.75
2023-03-10T16:46:10.381Z,19.83
2023-03-10T16:49:01.241Z,17.35
2023-03-10T16:51:50.610Z,17.33
2023-03-10T16:54:39.918Z,15.68
2023-03-10T16:57:30.667Z,17.05
2023-03-10T17:00:21.251Z,15.63
2023-03-10T17:03:10.548Z,15.25
2023-03-10T17:05:59.883Z,12.88
2023-03-10T17:08:49.616Z,13.93
2023-03-10T17:11:41.654Z,16.00
2023-03-10T17:14:32.307Z,13.55
2023-03-10T17:17:21.687Z,16.45
2023-03-10T17:20:12.767Z,14.65
2023-03-10T17:23:02.648Z,13.70
2023-03-10T17:25:51.997Z,12.02
2023-03-10T17:28:43.066Z,13.90
2023-03-10T17:31:34.098Z,12.98
2023-03-10T17:34:23.709Z,13.27
2023-03-10T17:37:12.949Z,11.82
2023-03-10T17:40:02.091Z,10.70
2023-03-10T17:42:51.741Z,12.55
2023-03-10T17:45:41.025Z,13.73
2023-03-10T17:48:32.840Z,12.60
2023-03-10T17:51:25.822Z,14.00
2023-03-10T17:54:17.470Z,13.85
2023-03-10T17:57:07.151Z,13.45
2023-03-10T17:59:56.505Z,17.17
2023-03-10T18:02:45.941Z,15.48
2023-03-10T18:05:41.446Z,17.05
2023-03-10T18:08:30.920Z,17.65
2023-03-10T18:11:21.743Z,18.90
2023-03-10T18:14:11.167Z,20.10
2023-03-10T18:17:02.964Z,20.98
2023-03-10T18:19:54.170Z,19.07
2023-03-10T18:22:44.761Z,20.35
2023-03-10T18:25:34.078Z,25.70
2023-03-10T18:28:24.029Z,27.83
2023-03-10T18:31:19.710Z,28.23
2023-03-10T18:34:10.293Z,24.40
2023-03-10T18:36:59.970Z,24.65
2023-03-10T18:39:50.754Z,25.83
2023-03-10T18:42:40.050Z,30.67
2023-03-10T18:45:29.207Z,54.67
2023-03-10T18:48:18.496Z,61.75
2023-03-10T18:51:07.730Z,76.22
2023-03-10T18:53:57.336Z,54.60
2023-03-10T18:56:48.047Z,60.17
2023-03-10T18:59:37.533Z,55.47
2023-03-10T19:02:27.153Z,47.75
2023-03-10T19:05:17.743Z,56.22
2023-03-10T19:08:07.876Z,47.72
2023-03-10T19:10:58.957Z,46.88
2023-03-10T19:13:49.808Z,54.70
2023-03-10T19:16:40.855Z,49.42
2023-03-10T19:19:30.227Z,46.15
2023-03-10T19:22:19.538Z,43.45
2023-03-10T19:25:13.000Z,49.45
2023-03-10T19:28:02.969Z,61.63
2023-03-10T19:30:54.492Z,55.58
2023-03-10T19:33:44.253Z,58.72
2023-03-10T19:36:34.607Z,56.42
2023-03-10T19:39:24.537Z,43.92
2023-03-10T19:42:13.694Z,51.55
2023-03-10T19:45:03.855Z,57.70
2023-03-10T19:47:58.129Z,58.65
2023-03-10T19:50:55.448Z,68.03
2023-03-10T19:53:44.856Z,62.47
2023-03-10T19:56:34.613Z,58.33
2023-03-10T19:59:25.264Z,84.90
2023-03-10T20:02:17.568Z,90.10
2023-03-10T20:05:10.083Z,75.70
2023-03-10T20:08:00.643Z,68.63
2023-03-10T20:10:50.249Z,72.70
2023-03-10T20:13:39.827Z,61.28
2023-03-10T20:16:29.594Z,59.13
2023-03-10T20:19:22.948Z,61.88
2023-03-10T20:22:18.612Z,64.10
2023-03-10T20:25:11.691Z,63.17
2023-03-10T20:28:01.411Z,57.67
2023-03-10T20:30:50.972Z,62.55
2023-03-10T20:33:40.247Z,67.20
2023-03-10T20:36:31.059Z,85.40
2023-03-10T20:39:22.885Z,106.10
2023-03-10T20:42:13.204Z,85.95
2023-03-10T20:45:02.767Z,81.47
2023-03-10T20:47:53.348Z,74.10
2023-03-10T20:50:43.029Z,75.35
2023-03-10T20:53:37.469Z,82.63
2023-03-10T20:56:31.066Z,91.70
2023-03-10T20:59:21.484Z,128.00
2023-03-10T21:02:16.032Z,171.52
2023-03-10T21:05:06.645Z,184.57
2023-03-10T21:07:56.383Z,195.90
2023-03-10T21:10:47.675Z,176.13
2023-03-10T21:13:41.169Z,155.30
2023-03-10T21:16:31.010Z,144.13
2023-03-10T21:19:20.274Z,156.18
2023-03-10T21:22:10.170Z,173.90
2023-03-10T21:24:59.597Z,168.23
2023-03-10T21:27:51.278Z,158.30
2023-03-10T21:30:43.454Z,153.45
2023-03-10T21:33:34.106Z,97.15
2023-03-10T21:36:25.406Z,105.25
2023-03-10T21:39:14.762Z,165.63
2023-03-10T21:42:04.178Z,108.30
2023-03-10T21:44:55.274Z,94.22
2023-03-10T21:47:46.289Z,94.25
2023-03-10T21:50:35.710Z,110.20
2023-03-10T21:53:26.846Z,111.00
2023-03-10T21:56:17.970Z,106.40
2023-03-10T21:59:08.008Z,107.90
2023-03-10T22:01:57.509Z,122.43
2023-03-10T22:04:48.189Z,138.75
2023-03-10T22:07:40.681Z,164.88
2023-03-10T22:10:30.321Z,108.72
2023-03-10T22:13:19.673Z,99.53
2023-03-10T22:16:10.914Z,99.40
2023-03-10T22:19:00.557Z,102.03
2023-03-10T22:21:51.451Z,102.88
2023-03-10T22:24:41.290Z,101.57
2023-03-10T22:27:30.644Z,103.40
2023-03-10T22:30:20.488Z,95.65
2023-03-10T22:33:09.707Z,98.65
2023-03-10T22:36:03.931Z,101.35
2023-03-10T22:38:54.763Z,97.05
2023-03-10T22:41:44.145Z,93.55
2023-03-10T22:44:36.787Z,89.28
2023-03-10T22:47:26.459Z,88.93
2023-03-10T22:50:19.789Z,86.10
2023-03-10T22:53:14.237Z,85.38
2023-03-10T22:56:05.165Z,87.72
2023-03-10T22:58:54.588Z,85.55
2023-03-10T23:01:44.637Z,87.75
2023-03-10T23:04:34.183Z,90.68
2023-03-10T23:07:23.370Z,86.88
2023-03-10T23:10:19.000Z,83.60
2023-03-10T23:13:14.866Z,86.53
2023-03-10T23:16:04.367Z,82.55
2023-03-10T23:18:53.608Z,83.85
2023-03-10T23:21:42.747Z,78.93
2023-03-10T23:24:32.054Z,81.03
2023-03-10T23:27:21.406Z,81.75
2023-03-10T23:30:14.921Z,81.10
2023-03-10T23:33:05.041Z,79.72
2023-03-10T23:35:54.772Z,76.50
2023-03-10T23:38:44.000Z,80.22
2023-03-10T23:41:33.197Z,80.13
2023-03-10T23:44:22.810Z,84.82
2023-03-10T23:47:13.469Z,83.18
2023-03-10T23:50:02.826Z,87.72
2023-03-10T23:52:52.326Z,85.72
2023-03-10T23:55:44.421Z,89.68
2023-03-10T23:58:33.726Z,82.35
